Time;durP1;ratioP1;P1;durP2;ratioP2;P2;SDS_P1;SDS_P2;PMS_P1;PMS_P2;Temp;Humidity;BMP_temperature;BMP_pressure;BME280_temperature;BME280_humidity;BME280_pressure;Samples;Min_cycle;Max_cycle;Signal;HPM_P1;HPM_P2
2021/03/15 00:00:59;;;;;;;5.07;4.37;;;3.60;99.90;;;;;;5072765;28;20189;-69
2021/03/15 00:03:25;;;;;;;5.33;4.70;;;3.50;99.90;;;;;;5072372;28;20235;-69
2021/03/15 00:05:51;;;;;;;6.90;3.97;;;3.50;99.90;;;;;;5072687;28;21056;-69
2021/03/15 00:08:16;;;;;;;5.87;5.27;;;3.40;99.90;;;;;;5071233;28;20276;-70
2021/03/15 00:10:42;;;;;;;6.70;4.43;;;3.40;99.90;;;;;;5072354;28;20201;-70
2021/03/15 00:13:08;;;;;;;5.67;4.47;;;3.30;99.90;;;;;;5072564;28;20543;-70
2021/03/15 00:15:34;;;;;;;5.40;4.60;;;3.30;99.90;;;;;;5072131;28;20173;-69
2021/03/15 00:18:00;;;;;;;5.80;5.40;;;3.20;99.90;;;;;;5072161;28;20205;-69
2021/03/15 00:20:26;;;;;;;4.90;4.50;;;3.20;99.90;;;;;;5072347;28;20920;-70
2021/03/15 00:22:52;;;;;;;5.10;4.70;;;3.10;99.90;;;;;;5072205;28;20177;-69
2021/03/15 00:25:18;;;;;;;6.63;5.00;;;3.10;99.90;;;;;;5071994;28;20458;-70
2021/03/15 00:27:45;;;;;;;5.70;5.00;;;3.10;99.90;;;;;;5072238;28;20177;-70
2021/03/15 00:30:14;;;;;;;6.63;6.03;;;3.10;99.90;;;;;;5072105;28;20422;-69
2021/03/15 00:32:40;;;;;;;6.13;4.57;;;3.10;99.90;;;;;;5071860;28;20403;-69
2021/03/15 00:35:07;;;;;;;5.30;4.57;;;3.10;99.90;;;;;;5071714;28;20423;-69
2021/03/15 00:37:33;;;;;;;4.47;4.03;;;3.10;99.90;;;;;;5071956;28;20467;-69
2021/03/15 00:39:59;;;;;;;4.97;4.50;;;3.10;99.90;;;;;;5072015;28;20419;-69
2021/03/15 00:42:25;;;;;;;5.67;4.00;;;3.10;99.90;;;;;;5071958;28;20426;-70
2021/03/15 00:44:50;;;;;;;7.10;4.57;;;3.10;99.90;;;;;;5071768;28;20639;-69
2021/03/15 00:47:16;;;;;;;5.77;4.37;;;3.00;99.90;;;;;;5072342;28;20197;-69
2021/03/15 00:49:41;;;;;;;6.33;4.90;;;3.00;99.90;;;;;;5072063;28;20177;-69
2021/03/15 00:52:07;;;;;;;5.50;4.33;;;3.00;99.90;;;;;;5071746;28;20613;-69
2021/03/15 00:54:32;;;;;;;5.90;5.30;;;3.00;99.90;;;;;;5071489;28;20580;-69
2021/03/15 00:56:58;;;;;;;6.00;5.47;;;2.90;99.90;;;;;;5069622;28;20354;-69
2021/03/15 00:59:23;;;;;;;5.47;4.97;;;2.90;99.90;;;;;;5070194;28;20204;-69
2021/03/15 01:01:49;;;;;;;5.67;5.20;;;2.90;99.90;;;;;;5071571;28;20238;-69
2021/03/15 01:04:16;;;;;;;6.33;5.60;;;2.90;99.90;;;;;;5071111;28;20173;-69
2021/03/15 01:06:44;;;;;;;6.37;5.20;;;2.80;99.90;;;;;;5071307;28;20415;-69
2021/03/15 01:09:11;;;;;;;5.50;4.63;;;2.80;99.90;;;;;;5071455;28;20415;-69
2021/03/15 01:11:40;;;;;;;8.27;6.00;;;2.80;99.90;;;;;;5071284;28;20423;-69
2021/03/15 01:14:07;;;;;;;7.00;5.70;;;2.80;99.90;;;;;;5070839;28;20514;-69
2021/03/15 01:16:33;;;;;;;10.37;5.53;;;2.70;99.90;;;;;;5071346;28;20415;-68
2021/03/15 01:18:59;;;;;;;7.63;6.23;;;2.70;99.90;;;;;;5071166;28;20448;-69
2021/03/15 01:21:26;;;;;;;7.53;5.70;;;2.70;99.90;;;;;;5071138;28;20591;-69
2021/03/15 01:23:51;;;;;;;8.17;6.00;;;2.70;99.90;;;;;;5070727;28;20411;-69
2021/03/15 01:26:17;;;;;;;8.93;6.30;;;2.70;99.90;;;;;;5070989;28;20935;-69
2021/03/15 01:28:43;;;;;;;7.07;6.00;;;2.70;99.90;;;;;;5071173;28;20173;-69
2021/03/15 01:31:09;;;;;;;6.07;4.70;;;2.70;99.90;;;;;;5070892;28;20492;-69
2021/03/15 01:33:35;;;;;;;5.70;5.20;;;2.70;99.90;;;;;;5070585;28;20170;-69
2021/03/15 01:36:01;;;;;;;8.03;6.00;;;2.60;99.90;;;;;;5070858;28;20419;-69
2021/03/15 01:38:26;;;;;;;6.50;4.83;;;2.60;99.90;;;;;;5070838;28;20244;-68
2021/03/15 01:40:52;;;;;;;10.47;5.70;;;2.60;99.90;;;;;;5070769;28;20200;-69
2021/03/15 01:43:17;;;;;;;5.87;5.27;;;2.60;99.90;;;;;;5070116;28;20169;-69
2021/03/15 01:45:43;;;;;;;7.30;4.67;;;2.60;99.90;;;;;;5070766;28;20629;-69
2021/03/15 01:48:12;;;;;;;4.77;4.37;;;2.60;99.90;;;;;;5070809;28;20169;-69
2021/03/15 01:50:39;;;;;;;5.73;5.13;;;2.60;99.90;;;;;;5070653;28;20738;-69
2021/03/15 01:53:05;;;;;;;7.87;5.63;;;2.50;99.90;;;;;;5070640;28;20427;-69
2021/03/15 01:55:30;;;;;;;7.03;5.00;;;2.50;99.90;;;;;;5069446;28;20522;-69
2021/03/15 01:57:56;;;;;;;6.27;5.03;;;2.50;99.90;;;;;;5070595;28;20224;-68
2021/03/15 02:00:22;;;;;;;7.90;5.87;;;2.50;99.90;;;;;;5070544;28;20189;-69
2021/03/15 02:02:59;;;;;;;7.07;6.30;;;2.60;99.90;;;;;;5070636;28;20172;-69
2021/03/15 02:05:26;;;;;;;5.50;5.00;;;2.60;99.90;;;;;;5070152;28;20161;-69
2021/03/15 02:07:53;;;;;;;5.83;5.20;;;2.70;99.90;;;;;;5070521;28;20422;-69
2021/03/15 02:10:19;;;;;;;7.20;4.90;;;2.70;99.90;;;;;;5071081;28;20472;-70
2021/03/15 02:12:59;;;;;;;5.57;5.10;;;2.70;99.90;;;;;;5070452;28;20455;-70
2021/03/15 02:15:57;;;;;;;7.87;5.20;;;2.60;99.90;;;;;;5070109;28;20173;-70
2021/03/15 02:18:29;;;;;;;8.83;6.00;;;2.60;99.90;;;;;;5070339;28;20495;-70
2021/03/15 02:21:35;;;;;;;7.23;5.67;;;2.70;99.90;;;;;;5070312;28;20446;-71
2021/03/15 02:24:28;;;;;;;6.73;5.80;;;2.70;99.90;;;;;;5053592;28;20500;-70
2021/03/15 02:27:29;;;;;;;6.47;5.50;;;2.70;99.90;;;;;;5070394;28;20836;-70
2021/03/15 02:30:03;;;;;;;7.73;5.20;;;2.60;99.90;;;;;;5070347;28;20471;-71
2021/03/15 02:32:43;;;;;;;8.50;6.10;;;2.60;99.90;;;;;;5070243;28;20430;-70
2021/03/15 02:35:18;;;;;;;7.50;5.50;;;2.60;99.90;;;;;;5069947;28;20419;-69
2021/03/15 02:38:08;;;;;;;5.63;4.63;;;2.60;99.90;;;;;;5070244;28;20822;-69
2021/03/15 02:40:44;;;;;;;7.37;5.40;;;2.60;99.90;;;;;;5070121;28;20492;-69
2021/03/15 02:43:15;;;;;;;6.47;5.67;;;2.50;99.90;;;;;;5070245;28;20414;-69
2021/03/15 02:45:43;;;;;;;8.23;5.97;;;2.50;99.90;;;;;;5070041;28;20501;-69
2021/03/15 02:48:11;;;;;;;8.80;6.10;;;2.50;99.90;;;;;;5070097;28;20423;-70
2021/03/15 02:50:39;;;;;;;7.70;5.50;;;2.50;99.90;;;;;;5070173;28;20499;-69
2021/03/15 02:53:09;;;;;;;7.53;5.93;;;2.50;99.90;;;;;;5070101;28;20808;-69
2021/03/15 02:55:37;;;;;;;9.30;5.20;;;2.50;99.90;;;;;;5070684;28;20920;-69
2021/03/15 02:58:04;;;;;;;6.87;5.80;;;2.50;99.90;;;;;;5073958;28;20865;-69
2021/03/15 03:00:31;;;;;;;10.27;5.07;;;2.50;99.90;;;;;;5073732;28;20435;-69
2021/03/15 03:02:57;;;;;;;8.97;5.50;;;2.50;99.90;;;;;;5072533;28;20437;-70
2021/03/15 03:05:24;;;;;;;8.27;5.20;;;2.50;99.90;;;;;;5073421;28;20411;-70
2021/03/15 03:07:53;;;;;;;8.70;5.20;;;2.60;99.90;;;;;;5073657;28;20180;-70
2021/03/15 03:10:23;;;;;;;5.80;5.20;;;2.60;99.90;;;;;;5073413;28;20446;-69
2021/03/15 03:12:51;;;;;;;7.90;5.87;;;2.70;99.90;;;;;;5073629;28;20820;-69
2021/03/15 03:15:24;;;;;;;8.50;6.50;;;2.70;99.90;;;;;;5073210;28;20426;-70
2021/03/15 03:17:51;;;;;;;6.53;5.57;;;2.70;99.90;;;;;;5073508;28;20466;-69
2021/03/15 03:20:19;;;;;;;6.53;4.47;;;2.70;99.90;;;;;;5073425;28;20431;-69
2021/03/15 03:22:47;;;;;;;8.30;5.90;;;2.80;99.90;;;;;;5072182;28;20423;-69
2021/03/15 03:25:16;;;;;;;9.43;5.43;;;2.80;99.90;;;;;;5073171;28;20419;-70
2021/03/15 03:27:45;;;;;;;6.10;5.50;;;2.80;99.90;;;;;;5073385;28;20791;-69
2021/03/15 03:30:11;;;;;;;8.13;4.67;;;2.80;99.90;;;;;;5073274;28;20423;-70
2021/03/15 03:32:39;;;;;;;6.47;4.87;;;2.80;99.90;;;;;;5073349;28;20419;-70
2021/03/15 03:35:06;;;;;;;9.03;5.67;;;2.80;99.90;;;;;;5072890;28;20532;-69
2021/03/15 03:37:32;;;;;;;6.37;4.77;;;2.80;99.90;;;;;;5073240;28;20520;-70
2021/03/15 03:39:58;;;;;;;6.70;4.90;;;2.80;99.90;;;;;;5073276;28;20631;-69
2021/03/15 03:42:23;;;;;;;5.60;4.40;;;2.80;99.90;;;;;;5073348;28;20176;-69
2021/03/15 03:44:51;;;;;;;6.10;4.73;;;2.80;99.90;;;;;;5073043;28;20243;-69
2021/03/15 03:47:16;;;;;;;4.10;3.70;;;2.80;99.90;;;;;;5073317;28;20172;-70
2021/03/15 03:49:43;;;;;;;6.57;4.30;;;2.80;99.90;;;;;;5073173;28;20485;-69
2021/03/15 03:52:08;;;;;;;6.63;5.00;;;2.80;99.90;;;;;;5073056;28;20195;-69
2021/03/15 03:54:39;;;;;;;7.10;4.40;;;2.90;99.90;;;;;;5072693;28;20419;-69
2021/03/15 03:57:15;;;;;;;6.73;4.30;;;2.90;99.90;;;;;;5072747;28;20224;-71
2021/03/15 03:59:45;;;;;;;5.80;4.60;;;2.90;99.90;;;;;;5072839;28;20978;-69
2021/03/15 04:02:12;;;;;;;7.40;4.00;;;2.90;99.90;;;;;;5071304;28;20484;-69
2021/03/15 04:04:43;;;;;;;10.13;3.77;;;2.90;99.90;;;;;;5072332;28;20429;-70
2021/03/15 04:07:11;;;;;;;6.80;5.20;;;3.00;99.90;;;;;;5072216;28;20480;-69
2021/03/15 04:09:38;;;;;;;10.33;5.00;;;3.00;99.90;;;;;;5072627;28;20411;-69
2021/03/15 04:12:08;;;;;;;6.10;4.17;;;3.00;99.90;;;;;;5072566;28;20441;-70
2021/03/15 04:14:45;;;;;;;10.47;4.97;;;3.00;99.90;;;;;;5071999;28;20429;-70
2021/03/15 04:17:15;;;;;;;8.67;4.37;;;2.90;99.90;;;;;;5072319;28;20947;-69
2021/03/15 04:19:50;;;;;;;6.50;4.40;;;2.90;99.90;;;;;;5072545;28;20470;-70
2021/03/15 04:22:16;;;;;;;5.70;4.20;;;2.90;99.90;;;;;;5072360;28;20462;-70
2021/03/15 04:24:42;;;;;;;6.67;3.73;;;2.90;99.90;;;;;;5071923;28;20411;-69
2021/03/15 04:27:10;;;;;;;5.20;4.70;;;2.90;99.90;;;;;;5072208;28;20435;-69
2021/03/15 04:29:38;;;;;;;7.67;5.20;;;2.90;99.90;;;;;;5072538;28;21166;-69
2021/03/15 04:32:06;;;;;;;9.37;4.30;;;2.90;99.90;;;;;;5071721;28;20455;-70
2021/03/15 04:34:34;;;;;;;6.87;5.03;;;2.90;99.90;;;;;;5071765;28;20545;-68
2021/03/15 04:37:04;;;;;;;6.67;4.60;;;2.90;99.90;;;;;;5071891;28;20462;-69
2021/03/15 04:39:33;;;;;;;8.27;4.10;;;2.90;99.90;;;;;;5071953;28;20778;-70
2021/03/15 04:42:00;;;;;;;5.97;4.10;;;2.90;99.90;;;;;;5072014;28;20474;-69
2021/03/15 04:44:25;;;;;;;6.37;4.43;;;2.90;99.90;;;;;;5071502;28;20411;-69
2021/03/15 04:46:53;;;;;;;6.87;4.90;;;2.90;99.90;;;;;;5071803;28;20407;-69
2021/03/15 04:49:18;;;;;;;7.30;5.30;;;2.90;99.90;;;;;;5071629;28;20172;-68
2021/03/15 04:51:44;;;;;;;6.80;5.10;;;2.90;99.90;;;;;;5071546;28;20443;-69
2021/03/15 04:54:11;;;;;;;7.17;5.27;;;2.90;99.90;;;;;;5071290;28;20832;-70
2021/03/15 04:56:38;;;;;;;6.77;5.60;;;2.90;99.90;;;;;;5071507;28;20180;-70
2021/03/15 04:59:04;;;;;;;6.30;5.03;;;2.90;99.90;;;;;;5071464;28;20431;-69
2021/03/15 05:01:33;;;;;;;5.80;4.40;;;2.90;99.90;;;;;;5071445;28;20439;-68
2021/03/15 05:04:00;;;;;;;7.13;5.87;;;2.90;99.90;;;;;;5071224;28;20418;-69
2021/03/15 05:06:27;;;;;;;11.40;5.27;;;2.90;99.90;;;;;;5071356;28;20486;-69
2021/03/15 05:08:54;;;;;;;7.30;5.93;;;3.00;99.90;;;;;;5071501;28;20472;-68
2021/03/15 05:11:25;;;;;;;7.40;5.57;;;3.00;99.90;;;;;;5071230;28;21186;-68
2021/03/15 05:13:51;;;;;;;10.93;5.50;;;3.00;99.90;;;;;;5070869;28;20916;-68
2021/03/15 05:16:17;;;;;;;5.87;4.67;;;3.00;99.90;;;;;;5071258;28;20411;-69
2021/03/15 05:18:43;;;;;;;6.83;5.60;;;3.00;99.90;;;;;;5070418;28;20467;-69
2021/03/15 05:21:09;;;;;;;6.10;5.50;;;2.90;99.90;;;;;;5071264;28;20275;-68
2021/03/15 05:23:37;;;;;;;7.80;5.00;;;2.90;99.90;;;;;;5070847;28;20442;-69
2021/03/15 05:26:03;;;;;;;8.33;5.00;;;3.00;99.90;;;;;;5071116;28;20415;-69
2021/03/15 05:28:30;;;;;;;6.70;5.60;;;3.00;99.90;;;;;;5071065;28;20415;-69
2021/03/15 05:31:02;;;;;;;10.30;5.30;;;3.00;99.90;;;;;;5070894;28;20326;-69
2021/03/15 05:33:31;;;;;;;5.83;5.03;;;3.00;99.90;;;;;;5070647;28;20419;-69
2021/03/15 05:35:58;;;;;;;6.57;4.47;;;3.00;99.90;;;;;;5070952;28;20431;-68
2021/03/15 05:38:24;;;;;;;5.77;5.03;;;3.00;99.90;;;;;;5070773;28;20466;-69
2021/03/15 05:40:52;;;;;;;6.20;4.83;;;3.10;99.90;;;;;;5070752;28;20436;-67
2021/03/15 05:43:32;;;;;;;7.10;4.47;;;3.00;99.90;;;;;;5070700;28;20173;-69
2021/03/15 05:46:07;;;;;;;11.10;4.33;;;3.10;99.90;;;;;;5070905;28;20928;-69
2021/03/15 05:48:41;;;;;;;7.10;4.53;;;3.00;99.90;;;;;;5070781;28;20905;-68
2021/03/15 05:51:27;;;;;;;6.57;4.70;;;3.00;99.90;;;;;;5070718;28;20457;-68
2021/03/15 05:54:11;;;;;;;7.70;4.47;;;3.00;99.90;;;;;;5070346;28;20419;-68
2021/03/15 05:56:36;;;;;;;8.50;4.67;;;3.00;99.90;;;;;;5070390;28;20504;-68
2021/03/15 05:59:23;;;;;;;5.87;5.10;;;3.00;99.90;;;;;;5070126;28;20855;-68
2021/03/15 06:01:55;;;;;;;8.77;4.80;;;2.90;99.90;;;;;;5070273;28;20574;-68
2021/03/15 06:04:45;;;;;;;8.37;4.83;;;2.90;99.90;;;;;;5070200;28;20419;-68
2021/03/15 06:07:20;;;;;;;11.13;4.93;;;2.90;99.90;;;;;;5070571;28;20898;-68
2021/03/15 06:10:07;;;;;;;5.43;4.90;;;2.90;99.90;;;;;;5070881;28;20417;-69
2021/03/15 06:13:02;;;;;;;6.90;5.60;;;2.90;99.90;;;;;;5070520;28;20427;-68
2021/03/15 06:15:41;;;;;;;10.50;6.03;;;2.90;99.90;;;;;;5066713;28;20430;-69
2021/03/15 06:18:09;;;;;;;7.13;4.90;;;2.80;99.90;;;;;;5070796;28;20800;-69
2021/03/15 06:20:37;;;;;;;6.90;5.00;;;2.90;99.90;;;;;;5070561;28;20423;-68
2021/03/15 06:23:04;;;;;;;7.13;5.50;;;2.90;99.90;;;;;;5070566;28;20415;-68
2021/03/15 06:25:31;;;;;;;7.97;5.60;;;2.90;99.90;;;;;;5070315;28;20847;-69
2021/03/15 06:27:57;;;;;;;17.80;6.33;;;2.90;99.90;;;;;;5070718;28;20977;-69
2021/03/15 06:30:24;;;;;;;10.20;6.20;;;2.90;99.90;;;;;;5072734;28;20449;-69
2021/03/15 06:32:51;;;;;;;5.63;4.57;;;2.90;99.90;;;;;;5074709;28;20484;-68
2021/03/15 06:35:20;;;;;;;4.70;4.23;;;2.80;99.90;;;;;;5074047;28;20410;-68
2021/03/15 06:37:47;;;;;;;6.50;5.63;;;2.70;99.90;;;;;;5074276;28;20881;-68
2021/03/15 06:40:13;;;;;;;8.47;4.87;;;2.70;99.90;;;;;;5074150;28;20506;-69
2021/03/15 06:42:40;;;;;;;8.23;5.43;;;2.80;99.90;;;;;;5074233;28;20422;-68
2021/03/15 06:45:11;;;;;;;5.90;4.90;;;2.90;99.90;;;;;;5073934;28;20646;-68
2021/03/15 06:47:37;;;;;;;9.10;5.40;;;2.90;99.90;;;;;;5074175;28;20431;-69
2021/03/15 06:50:03;;;;;;;5.53;4.53;;;3.00;99.90;;;;;;5073865;28;20423;-70
2021/03/15 06:52:28;;;;;;;5.90;3.43;;;3.10;99.90;;;;;;5073881;28;20169;-69
2021/03/15 06:55:03;;;;;;;6.27;3.30;;;3.10;99.90;;;;;;5073521;28;20426;-68
2021/03/15 06:57:29;;;;;;;5.10;4.20;;;3.20;99.90;;;;;;5073577;28;20200;-68
2021/03/15 06:59:56;;;;;;;4.90;3.50;;;3.30;99.90;;;;;;5073829;28;20429;-68
2021/03/15 07:02:30;;;;;;;5.37;4.00;;;3.30;99.90;;;;;;5073753;28;20175;-69
2021/03/15 07:05:16;;;;;;;4.50;3.90;;;3.40;99.90;;;;;;5073558;28;20422;-68
2021/03/15 07:07:50;;;;;;;6.17;4.40;;;3.50;99.90;;;;;;5073340;28;20431;-69
2021/03/15 07:10:28;;;;;;;5.00;4.50;;;3.50;99.90;;;;;;5073537;28;20836;-69
2021/03/15 07:13:06;;;;;;;4.47;3.90;;;3.60;99.90;;;;;;5073478;28;20433;-69
2021/03/15 07:15:33;;;;;;;6.60;4.40;;;3.60;99.90;;;;;;5073196;28;20783;-69
2021/03/15 07:18:16;;;;;;;3.90;3.60;;;3.60;99.90;;;;;;5073381;28;20462;-69
2021/03/15 07:20:42;;;;;;;5.50;3.13;;;3.60;99.90;;;;;;5073448;28;20435;-69
2021/03/15 07:23:07;;;;;;;3.23;2.93;;;3.70;99.90;;;;;;5073367;28;20989;-69
2021/03/15 07:25:33;;;;;;;3.97;3.67;;;3.70;99.90;;;;;;5072939;28;20173;-68
2021/03/15 07:27:58;;;;;;;3.40;3.10;;;3.70;99.90;;;;;;5073260;28;20172;-69
2021/03/15 07:30:28;;;;;;;4.50;3.20;;;3.70;99.90;;;;;;5073213;28;20280;-68
2021/03/15 07:32:57;;;;;;;4.80;3.77;;;3.60;99.90;;;;;;5073259;28;20259;-69
2021/03/15 07:35:28;;;;;;;2.77;2.50;;;3.50;99.90;;;;;;5072821;28;20411;-69
2021/03/15 07:37:54;;;;;;;4.70;2.70;;;3.20;99.90;;;;;;5073181;28;20512;-70
2021/03/15 07:40:36;;;;;;;2.50;2.30;;;3.00;99.90;;;;;;5073031;28;20434;-69
2021/03/15 07:43:03;;;;;;;3.30;2.83;;;3.00;99.90;;;;;;5072388;28;20153;-69
2021/03/15 07:45:37;;;;;;;4.30;2.33;;;2.90;99.90;;;;;;5072744;28;20551;-69
2021/03/15 07:48:14;;;;;;;3.90;2.30;;;2.90;99.90;;;;;;5072963;28;20426;-68
2021/03/15 07:50:42;;;;;;;5.00;2.60;;;2.80;99.90;;;;;;5073013;28;20492;-69
2021/03/15 07:53:08;;;;;;;3.50;3.20;;;2.80;99.90;;;;;;5072898;28;20411;-70
2021/03/15 07:55:36;;;;;;;3.43;3.13;;;2.90;99.90;;;;;;5072458;28;20489;-69
2021/03/15 07:58:02;;;;;;;4.30;3.20;;;2.90;99.90;;;;;;5072663;28;20459;-70
2021/03/15 08:00:28;;;;;;;3.03;2.73;;;2.90;99.90;;;;;;5072560;28;20439;-69
2021/03/15 08:02:56;;;;;;;4.10;3.53;;;3.00;99.90;;;;;;5072622;28;20169;-69
2021/03/15 08:05:21;;;;;;;3.83;3.50;;;3.00;99.90;;;;;;5072304;28;20909;-69
2021/03/15 08:07:47;;;;;;;5.00;3.50;;;3.10;99.90;;;;;;5072607;28;20422;-69
2021/03/15 08:10:13;;;;;;;4.17;2.90;;;3.10;99.90;;;;;;5073139;28;20231;-68
2021/03/15 08:12:39;;;;;;;3.90;3.50;;;3.20;99.90;;;;;;5072508;28;20189;-68
2021/03/15 08:15:06;;;;;;;3.93;3.60;;;3.20;99.90;;;;;;5072081;28;20173;-68
2021/03/15 08:17:35;;;;;;;4.97;3.80;;;3.30;99.90;;;;;;5072276;28;20461;-68
2021/03/15 08:20:05;;;;;;;3.67;2.90;;;3.50;99.90;;;;;;5072221;28;20418;-68
2021/03/15 08:22:48;;;;;;;3.60;3.13;;;3.70;99.90;;;;;;5072392;28;20780;-68
2021/03/15 08:25:14;;;;;;;7.43;3.27;;;3.90;99.90;;;;;;5071966;28;20412;-68
2021/03/15 08:27:41;;;;;;;3.30;2.70;;;4.00;99.90;;;;;;5072313;28;20415;-69
2021/03/15 08:30:15;;;;;;;3.97;2.20;;;4.10;99.90;;;;;;5072186;28;20423;-68
2021/03/15 08:32:42;;;;;;;2.93;2.10;;;4.20;99.90;;;;;;5072032;28;20418;-69
2021/03/15 08:35:09;;;;;;;3.27;2.97;;;4.30;99.90;;;;;;5071802;28;20423;-69
2021/03/15 08:37:52;;;;;;;2.60;2.00;;;4.40;99.90;;;;;;5072030;28;20454;-69
2021/03/15 08:40:42;;;;;;;2.20;2.00;;;4.60;99.90;;;;;;5071866;28;20959;-69
2021/03/15 08:43:17;;;;;;;2.27;1.83;;;4.70;99.90;;;;;;5071869;28;20399;-69
2021/03/15 08:45:55;;;;;;;4.17;2.13;;;4.50;99.90;;;;;;5071639;28;20402;-69
2021/03/15 08:48:33;;;;;;;3.00;2.40;;;4.40;99.90;;;;;;5071904;28;20403;-68
2021/03/15 08:51:00;;;;;;;4.23;1.80;;;4.30;99.90;;;;;;5071731;28;20442;-68
2021/03/15 08:53:38;;;;;;;4.03;1.90;;;4.30;99.90;;;;;;5071375;28;20909;-68
2021/03/15 08:56:04;;;;;;;2.50;2.30;;;4.50;99.90;;;;;;5071710;28;20459;-68
2021/03/15 08:58:50;;;;;;;2.53;2.00;;;4.50;99.90;;;;;;5071554;28;20824;-69
2021/03/15 09:01:18;;;;;;;1.77;1.50;;;4.50;99.90;;;;;;5071598;28;20438;-68
2021/03/15 09:03:48;;;;;;;2.67;2.47;;;4.40;99.90;;;;;;5071192;28;20746;-69
2021/03/15 09:06:14;;;;;;;1.83;1.73;;;4.40;99.90;;;;;;5071448;28;20473;-68
2021/03/15 09:09:10;;;;;;;2.57;1.70;;;4.40;99.90;;;;;;5071270;28;20762;-68
2021/03/15 09:11:39;;;;;;;2.60;2.40;;;4.50;99.90;;;;;;5067621;28;20497;-68
2021/03/15 09:14:32;;;;;;;1.57;1.47;;;4.50;99.90;;;;;;5070890;28;20419;-69
2021/03/15 09:17:16;;;;;;;2.30;1.80;;;4.60;99.90;;;;;;5069657;28;20816;-68
2021/03/15 09:19:44;;;;;;;1.40;1.30;;;4.50;99.90;;;;;;5071289;28;20498;-68
2021/03/15 09:22:34;;;;;;;1.50;1.40;;;4.60;99.90;;;;;;5071143;28;20439;-69
2021/03/15 09:25:02;;;;;;;2.40;1.80;;;4.60;99.90;;;;;;5070656;28;20454;-68
2021/03/15 09:27:32;;;;;;;2.33;1.83;;;4.70;99.90;;;;;;5071162;28;20423;-68
2021/03/15 09:30:06;;;;;;;2.10;1.40;;;4.70;99.90;;;;;;5071033;28;20876;-68
2021/03/15 09:32:37;;;;;;;3.23;1.67;;;4.70;99.90;;;;;;5071137;28;20436;-68
2021/03/15 09:35:30;;;;;;;1.47;1.30;;;4.70;99.90;;;;;;5070621;28;20455;-68
2021/03/15 09:37:59;;;;;;;1.80;1.50;;;4.70;99.90;;;;;;5071022;28;20540;-68
2021/03/15 09:40:36;;;;;;;1.47;1.33;;;4.70;99.90;;;;;;5070861;28;20970;-69
2021/03/15 09:43:03;;;;;;;1.33;1.23;;;4.80;99.90;;;;;;5070871;28;21069;-68
2021/03/15 09:45:30;;;;;;;2.77;1.50;;;4.90;99.90;;;;;;5070411;28;20917;-69
2021/03/15 09:47:57;;;;;;;3.27;1.43;;;4.90;99.90;;;;;;5070676;28;20423;-69
2021/03/15 09:50:25;;;;;;;1.70;1.60;;;4.90;99.90;;;;;;5070529;28;20443;-70
2021/03/15 09:52:51;;;;;;;1.93;1.83;;;5.10;99.90;;;;;;5070469;28;20422;-69
2021/03/15 09:55:17;;;;;;;2.00;1.90;;;5.20;99.90;;;;;;5070206;28;21009;-69
2021/03/15 09:57:43;;;;;;;3.20;2.17;;;5.20;99.90;;;;;;5070723;28;20666;-68
2021/03/15 10:00:10;;;;;;;3.03;2.30;;;5.30;99.90;;;;;;5070502;28;20419;-68
2021/03/15 10:02:36;;;;;;;2.50;2.30;;;5.40;99.90;;;;;;5070681;28;20411;-69
2021/03/15 10:05:01;;;;;;;2.33;2.10;;;5.40;99.90;;;;;;5069702;28;20473;-69
2021/03/15 10:07:27;;;;;;;2.57;2.37;;;5.40;99.90;;;;;;5070487;28;20196;-69
2021/03/15 10:09:53;;;;;;;2.50;2.30;;;5.50;99.90;;;;;;5070288;28;20411;-69
2021/03/15 10:12:23;;;;;;;4.53;3.23;;;5.60;99.90;;;;;;5070501;28;20189;-69
2021/03/15 10:15:00;;;;;;;5.73;3.60;;;5.80;99.90;;;;;;5070279;28;20199;-69
2021/03/15 10:17:26;;;;;;;2.60;2.37;;;5.90;99.90;;;;;;5070346;28;20462;-69
2021/03/15 10:19:52;;;;;;;2.50;2.30;;;5.90;99.90;;;;;;5070460;28;20778;-69
2021/03/15 10:22:19;;;;;;;2.60;2.27;;;5.90;99.90;;;;;;5070307;28;20466;-69
2021/03/15 10:24:50;;;;;;;2.27;2.07;;;5.80;99.90;;;;;;5069982;28;20783;-69
2021/03/15 10:27:30;;;;;;;3.03;2.40;;;5.70;99.90;;;;;;5070421;28;20504;-70
2021/03/15 10:30:09;;;;;;;2.30;2.10;;;5.60;99.90;;;;;;5070437;28;20415;-69
2021/03/15 10:32:35;;;;;;;2.30;2.00;;;5.60;99.90;;;;;;5070331;28;20787;-69
2021/03/15 10:35:08;;;;;;;2.63;2.33;;;5.60;99.90;;;;;;5070017;28;20513;-68
2021/03/15 10:37:40;;;;;;;3.00;2.70;;;5.60;99.90;;;;;;5070094;28;20462;-69
2021/03/15 10:40:09;;;;;;;2.50;2.30;;;5.70;99.90;;;;;;5070233;28;20418;-69
2021/03/15 10:42:37;;;;;;;2.60;2.40;;;5.60;99.90;;;;;;5070185;28;20843;-69
2021/03/15 10:45:10;;;;;;;3.40;2.53;;;5.70;99.90;;;;;;5069739;28;20457;-68
2021/03/15 10:47:37;;;;;;;3.27;2.90;;;5.80;99.90;;;;;;5070334;28;20419;-69
2021/03/15 10:50:22;;;;;;;4.13;2.60;;;5.80;99.90;;;;;;5070053;28;20745;-68
2021/03/15 10:52:48;;;;;;;4.83;2.70;;;5.80;99.90;;;;;;5070096;28;20430;-70
2021/03/15 10:55:18;;;;;;;4.40;2.50;;;5.80;99.90;;;;;;5069813;28;20419;-68
2021/03/15 10:58:07;;;;;;;2.20;2.07;;;5.80;99.90;;;;;;5070204;28;20200;-70
2021/03/15 11:00:47;;;;;;;5.93;2.90;;;5.90;99.90;;;;;;5070227;28;20459;-68
2021/03/15 11:03:30;;;;;;;2.67;2.47;;;6.00;99.90;;;;;;5070001;28;20430;-68
2021/03/15 11:06:03;;;;;;;1.73;1.63;;;6.20;99.90;;;;;;5069943;28;20423;-68
2021/03/15 11:08:28;;;;;;;3.17;2.70;;;6.40;99.90;;;;;;5069939;28;20501;-69
2021/03/15 11:10:54;;;;;;;2.67;2.47;;;6.40;99.90;;;;;;5069827;28;20526;-69
2021/03/15 11:13:21;;;;;;;1.90;1.80;;;6.70;99.90;;;;;;5069705;28;20181;-69
2021/03/15 11:15:47;;;;;;;3.63;2.90;;;6.70;99.90;;;;;;5070014;28;20256;-69
2021/03/15 11:18:23;;;;;;;3.00;2.70;;;6.60;99.90;;;;;;5073001;28;20537;-70
2021/03/15 11:20:50;;;;;;;1.83;1.70;;;6.50;99.90;;;;;;5073433;28;20838;-69
2021/03/15 11:23:37;;;;;;;2.23;2.03;;;6.40;99.90;;;;;;5073327;28;20904;-68
2021/03/15 11:26:13;;;;;;;2.97;2.57;;;6.20;99.90;;;;;;5073684;28;20410;-69
2021/03/15 11:28:47;;;;;;;2.57;2.33;;;6.30;99.90;;;;;;5073463;28;20414;-69
2021/03/15 11:31:18;;;;;;;5.10;4.40;;;6.30;99.90;;;;;;5073306;28;20485;-69
2021/03/15 11:33:58;;;;;;;3.00;2.80;;;6.50;99.90;;;;;;5073010;28;20438;-69
2021/03/15 11:36:25;;;;;;;2.83;2.63;;;7.20;99.90;;;;;;5073234;28;20950;-68
2021/03/15 11:38:52;;;;;;;3.30;3.00;;;7.80;99.90;;;;;;5073224;28;20455;-69
2021/03/15 11:41:23;;;;;;;2.47;2.23;;;8.10;99.90;;;;;;5073465;28;20439;-70
2021/03/15 11:43:49;;;;;;;3.40;3.10;;;8.00;99.90;;;;;;5072915;28;20419;-69
2021/03/15 11:46:16;;;;;;;2.43;2.20;;;8.20;99.90;;;;;;5073210;28;20414;-70
2021/03/15 11:48:42;;;;;;;2.37;2.17;;;8.70;99.90;;;;;;5071774;28;20419;-70
2021/03/15 11:51:10;;;;;;;3.43;2.50;;;8.50;99.90;;;;;;5072911;28;20948;-69
2021/03/15 11:53:36;;;;;;;2.90;2.70;;;8.20;99.90;;;;;;5072592;28;20419;-69
2021/03/15 11:56:01;;;;;;;2.50;2.30;;;7.90;99.90;;;;;;5072768;28;20465;-69
2021/03/15 11:58:27;;;;;;;2.97;2.73;;;7.70;99.90;;;;;;5072757;28;20204;-69
2021/03/15 12:00:52;;;;;;;3.87;3.57;;;7.70;99.90;;;;;;5072878;28;20195;-69
2021/03/15 12:03:18;;;;;;;3.07;2.80;;;7.80;99.90;;;;;;5072603;28;20269;-70
2021/03/15 12:05:44;;;;;;;3.20;3.00;;;7.80;99.90;;;;;;5072490;28;20170;-68
2021/03/15 12:08:09;;;;;;;2.23;2.10;;;8.20;99.90;;;;;;5072790;28;20546;-68
2021/03/15 12:10:35;;;;;;;2.60;2.40;;;8.30;99.90;;;;;;5068020;28;20196;-70
2021/03/15 12:13:00;;;;;;;3.20;1.80;;;8.40;99.90;;;;;;5045433;28;20299;-69
2021/03/15 12:15:26;;;;;;;2.67;2.47;;;8.60;99.90;;;;;;5059781;28;20272;-69
2021/03/15 12:17:52;;;;;;;2.20;2.10;;;8.70;99.90;;;;;;5072338;28;20240;-70
2021/03/15 12:20:18;;;;;;;2.80;2.40;;;8.80;99.90;;;;;;5072205;28;20209;-69
2021/03/15 12:22:46;;;;;;;2.53;2.33;;;8.80;99.90;;;;;;5068529;28;20431;-70
2021/03/15 12:25:12;;;;;;;3.60;2.80;;;9.00;99.90;;;;;;5070007;28;20165;-68
2021/03/15 12:27:38;;;;;;;3.07;2.77;;;9.10;99.90;;;;;;5070684;28;20435;-68
2021/03/15 12:30:04;;;;;;;2.80;2.60;;;9.10;99.90;;;;;;5071914;28;20802;-69
2021/03/15 12:32:30;;;;;;;2.47;2.27;;;9.00;99.90;;;;;;5068452;28;20169;-69
2021/03/15 12:34:55;;;;;;;2.40;2.20;;;9.70;99.90;;;;;;5071647;28;20472;-69
2021/03/15 12:37:21;;;;;;;15.33;11.47;;;11.10;99.90;;;;;;5071964;28;20556;-70
2021/03/15 12:39:49;;;;;;;2.77;2.57;;;11.90;99.90;;;;;;5071986;28;20180;-69
2021/03/15 12:42:17;;;;;;;2.10;2.00;;;11.90;99.90;;;;;;5068366;28;20195;-69
2021/03/15 12:44:43;;;;;;;2.30;2.20;;;11.40;99.90;;;;;;5071507;28;20420;-70
2021/03/15 12:47:09;;;;;;;3.77;2.43;;;10.80;99.90;;;;;;5071599;28;20419;-69
2021/03/15 12:49:34;;;;;;;2.73;2.53;;;10.50;99.90;;;;;;5071842;28;20410;-70
2021/03/15 12:52:00;;;;;;;3.77;2.60;;;10.60;99.90;;;;;;5068006;28;20505;-69
2021/03/15 12:54:25;;;;;;;3.27;2.97;;;11.50;99.90;;;;;;5071243;28;20658;-70
2021/03/15 12:56:51;;;;;;;2.93;2.73;;;11.60;99.90;;;;;;5071401;28;20203;-69
2021/03/15 12:59:17;;;;;;;2.50;2.30;;;12.30;99.90;;;;;;5071603;28;20201;-70
2021/03/15 13:01:42;;;;;;;2.50;2.40;;;11.80;99.90;;;;;;5068047;28;20224;-69
2021/03/15 13:04:09;;;;;;;5.27;3.13;;;11.00;99.90;;;;;;5071155;28;20196;-69
2021/03/15 13:06:35;;;;;;;3.00;2.80;;;10.60;99.90;;;;;;5071380;28;20169;-69
2021/03/15 13:09:01;;;;;;;5.67;2.80;;;10.80;99.90;;;;;;5071360;28;20415;-69